Milton Village, MA (02187)

1:43 AM EDT on August 29, 2014 (GMT -0400)
Turner's Pond | Change Station
CLOSE
Current Station
Personal Weather Station
Location: Milton, MA
Elevation: 66 ft
Nearby Weather Stations

Elev 66 ft 42.26 °N, 71.08 °W | Updated 2 seconds ago

Clear
Clear
61.3 °F
Feels Like 61.3 °F
N
0.0
Wind Variable Wind from WSW
Gusts 0.0 mph

Today
High -- | Low -- °F
--% Chance of Precip.
Yesterday
High -- | Low -- °F
Precip. -- in
6:06 AM 7:23 PM
Waxing Crescent, 12% visible
Pressure 30.01 in
Visibility 10.0 miles
Clouds Clear
Dew Point 50 °F
Humidity 67%
Rainfall 0.00 in
Snow Depth Not available.
UV 0 out of 12
Pollen 10.00 out of 12
PM2.5 Good
Flu Activity Not available.
METAR KOWD 290453Z 00000KT 10SM CLR 16/09 A3001 RMK AO2 SLP161 T01560089 402780156

More Conditions Fewer Conditions

Pressure 30.01 in
Visibility 10.0 miles
Clouds Clear
Dew Point 50 °F
Humidity 67%
Rainfall 0.00 in
Snow Depth Not available.
UV 0 out of 12
Pollen 10.00 out of 12
PM2.5 Good
Flu Activity Not available.
METAR KOWD 290453Z 00000KT 10SM CLR 16/09 A3001 RMK AO2 SLP161 T01560089 402780156

More Conditions Fewer Conditions

10-Day Weather Forecast

Almanac

Astronomy

Aug. 29, 2014 Rise Set
Actual Time 6:06 AM EDT 7:23 PM EDT
Civil Twilight 5:37 AM EDT 7:52 PM EDT
Nautical Twilight 5:02 AM EDT 8:26 PM EDT
Astronomical Twilight 4:25 AM EDT 9:03 PM EDT
Moon 9:58 AM EDT 9:13 PM EDT
Length of Visible Light 14h 14m
Length of Day
13h 16m
Tomorrow will be 2m 43s shorter.
Waxing Crescent, 12% of the Moon is Illuminated
Today
Waxing Crescent
Sep 2
First Quarter
Sep 8
Full
Sep 15
Last Quarter
Sep 24
New

Today's Extremes

State Highs State Lows

Community

WunderPhotos

Upload Photos

1,748,197 photos uploaded!

Nearby

Air Quality

  Air Quality AQ Index Pollutant
Yesterday Good
PM2.5
Yesterday Good
OZONE
Current Good
PM2.5
Friday Good
PM2.5
Friday Good
OZONE

Snow Depth

Station Depth Elevation
No new snow has been reported.

Earthquake Activity

City Distance Mag. Time & Date
No recent earthquake activity has been reported nearby.
Minimum magnitude displayed is 2.5.

Coastal Water Temperatures

Place Temperature
Boston, MA 68.0 °F
Providence, RI 72.0 °F
Fall River, MA 73.0 °F
Conimicut Light, RI 73.0 °F

Nearby Weather Stations